Time;durP1;ratioP1;P1;durP2;ratioP2;P2;SDS_P1;SDS_P2;PMS_P1;PMS_P2;Temp;Humidity;BMP_temperature;BMP_pressure;BME280_temperature;BME280_humidity;BME280_pressure;Samples;Min_cycle;Max_cycle;Signal;HPM_P1;HPM_P2
2021/09/03 00:00:49;;;;;;;13.07;8.45;;;15.70;99.90;;;;;;5071717;28;20272;-76
2021/09/03 00:03:16;;;;;;;13.57;9.32;;;15.60;99.90;;;;;;5071615;28;20231;-77
2021/09/03 00:05:42;;;;;;;10.00;7.57;;;15.50;99.90;;;;;;5071427;28;20210;-76
2021/09/03 00:08:11;;;;;;;9.50;6.80;;;15.50;99.90;;;;;;5071382;28;20307;-75
2021/09/03 00:10:37;;;;;;;10.88;7.15;;;15.50;99.90;;;;;;5071702;28;20302;-76
2021/09/03 00:13:04;;;;;;;11.70;6.85;;;15.60;99.90;;;;;;5071499;28;20595;-75
2021/09/03 00:15:31;;;;;;;7.65;6.20;;;15.50;99.90;;;;;;5071574;28;20318;-74
2021/09/03 00:18:02;;;;;;;8.50;6.25;;;15.50;99.90;;;;;;5071195;28;20205;-74
2021/09/03 00:20:29;;;;;;;8.02;5.75;;;15.60;99.90;;;;;;5071389;28;20267;-73
2021/09/03 00:22:56;;;;;;;8.07;6.25;;;15.60;99.90;;;;;;5074282;28;20223;-72
2021/09/03 00:25:24;;;;;;;8.60;6.95;;;15.60;99.90;;;;;;5075122;28;20210;-73
2021/09/03 00:27:51;;;;;;;8.07;6.45;;;15.60;99.90;;;;;;5074991;28;20247;-73
2021/09/03 00:30:18;;;;;;;8.52;6.68;;;15.50;99.90;;;;;;5074943;28;20205;-75
2021/09/03 00:32:45;;;;;;;12.60;7.05;;;15.50;99.90;;;;;;5074857;28;20555;-74
2021/09/03 00:35:12;;;;;;;7.05;5.80;;;15.50;99.90;;;;;;5074757;28;20233;-75
2021/09/03 00:37:39;;;;;;;9.05;6.50;;;15.60;99.90;;;;;;5074993;28;20292;-75
2021/09/03 00:40:07;;;;;;;8.77;6.65;;;15.60;99.90;;;;;;5074398;28;20754;-74
2021/09/03 00:42:36;;;;;;;8.70;7.25;;;15.60;99.90;;;;;;5074666;28;20214;-74
2021/09/03 00:45:03;;;;;;;11.45;7.35;;;15.60;99.90;;;;;;5074545;28;20217;-73
2021/09/03 00:47:30;;;;;;;11.40;7.70;;;15.60;99.90;;;;;;5074572;28;20209;-75
2021/09/03 00:49:56;;;;;;;10.45;7.28;;;15.50;99.90;;;;;;5074606;28;20210;-75
2021/09/03 00:52:24;;;;;;;10.05;7.72;;;15.40;99.90;;;;;;5074806;28;20787;-76
2021/09/03 00:54:54;;;;;;;9.32;6.70;;;15.40;99.90;;;;;;5074429;28;20224;-75
2021/09/03 00:57:22;;;;;;;8.40;6.35;;;15.40;99.90;;;;;;5076795;28;20211;-77
2021/09/03 00:59:53;;;;;;;9.70;7.15;;;15.40;99.90;;;;;;5078681;28;20210;-77
2021/09/03 01:02:20;;;;;;;9.60;6.85;;;15.50;99.90;;;;;;5077630;28;20205;-77
2021/09/03 01:04:47;;;;;;;9.02;6.72;;;15.40;99.90;;;;;;5078001;28;20237;-76
2021/09/03 01:07:15;;;;;;;9.77;7.13;;;15.40;99.90;;;;;;5077812;28;20564;-76
2021/09/03 01:09:42;;;;;;;10.02;6.82;;;15.30;99.90;;;;;;5078032;28;20614;-78
2021/09/03 01:12:09;;;;;;;9.63;6.57;;;15.40;99.90;;;;;;5077791;28;20204;-78
2021/09/03 01:14:36;;;;;;;9.55;6.75;;;15.40;99.90;;;;;;5077666;28;20224;-78
2021/09/03 01:17:05;;;;;;;10.20;6.90;;;15.30;99.90;;;;;;5077377;28;20284;-78
2021/09/03 01:19:32;;;;;;;6.53;5.82;;;15.20;99.90;;;;;;5077275;28;20209;-79
2021/09/03 01:22:01;;;;;;;9.82;7.00;;;15.20;99.90;;;;;;5077331;28;20216;-78
2021/09/03 01:24:28;;;;;;;8.73;6.45;;;15.20;99.90;;;;;;5076644;28;20316;-78
2021/09/03 01:26:55;;;;;;;9.80;7.18;;;15.30;99.90;;;;;;5077173;28;20204;-78
2021/09/03 01:29:21;;;;;;;9.30;7.18;;;15.20;99.90;;;;;;5076580;28;20232;-78
2021/09/03 01:31:48;;;;;;;9.77;7.15;;;15.20;99.90;;;;;;5076903;28;20308;-78
2021/09/03 01:34:15;;;;;;;10.20;7.25;;;15.20;99.90;;;;;;5076170;28;20315;-78
2021/09/03 01:36:42;;;;;;;8.43;6.88;;;15.20;99.90;;;;;;5076691;28;20204;-78
2021/09/03 01:39:10;;;;;;;8.43;6.80;;;15.20;99.90;;;;;;5076865;28;20252;-78
2021/09/03 01:41:37;;;;;;;8.52;7.40;;;15.20;99.90;;;;;;5076028;28;20691;-78
2021/09/03 01:44:04;;;;;;;8.45;7.07;;;15.20;99.90;;;;;;5076658;28;20620;-78
2021/09/03 01:46:31;;;;;;;11.30;7.72;;;15.10;99.90;;;;;;5076260;28;20292;-78
2021/09/03 01:48:58;;;;;;;10.80;6.93;;;15.10;99.90;;;;;;5076016;28;20708;-78
2021/09/03 01:51:24;;;;;;;7.20;6.45;;;15.10;99.90;;;;;;5076658;28;20291;-78
2021/09/03 01:53:52;;;;;;;11.55;7.45;;;15.10;99.90;;;;;;5076503;28;20227;-78
2021/09/03 01:56:20;;;;;;;11.32;7.60;;;15.10;99.90;;;;;;5078001;28;20233;-78
2021/09/03 01:58:47;;;;;;;11.02;7.97;;;15.10;99.90;;;;;;5077037;28;20209;-78
2021/09/03 02:01:14;;;;;;;13.43;7.82;;;15.10;99.90;;;;;;5076429;28;20286;-78
2021/09/03 02:03:40;;;;;;;12.50;7.95;;;15.00;99.90;;;;;;5076226;28;20307;-78
2021/09/03 02:06:07;;;;;;;10.27;7.20;;;15.00;99.90;;;;;;5076466;28;20275;-78
2021/09/03 02:08:34;;;;;;;9.93;7.70;;;14.90;99.90;;;;;;5076955;28;20204;-78
2021/09/03 02:11:01;;;;;;;12.07;7.50;;;15.00;99.90;;;;;;5076309;28;20200;-78
2021/09/03 02:13:29;;;;;;;10.30;7.57;;;15.00;99.90;;;;;;5076242;28;20743;-79
2021/09/03 02:15:56;;;;;;;10.60;7.55;;;15.00;99.90;;;;;;5075898;28;20671;-78
2021/09/03 02:18:23;;;;;;;12.45;8.20;;;14.90;99.90;;;;;;5076639;28;20303;-78
2021/09/03 02:20:50;;;;;;;9.27;6.93;;;14.80;99.90;;;;;;5076606;28;20679;-78
2021/09/03 02:23:16;;;;;;;12.30;8.25;;;14.70;99.90;;;;;;5077385;28;20316;-78
2021/09/03 02:25:43;;;;;;;13.55;8.85;;;14.80;99.90;;;;;;5075917;28;20286;-78
2021/09/03 02:28:12;;;;;;;13.57;7.90;;;14.80;99.90;;;;;;5076119;28;20305;-78
2021/09/03 02:30:40;;;;;;;16.58;8.38;;;14.80;99.90;;;;;;5076698;28;20205;-78
2021/09/03 02:33:07;;;;;;;14.10;8.55;;;14.90;99.90;;;;;;5075953;28;20211;-78
2021/09/03 02:35:34;;;;;;;8.50;7.40;;;14.90;99.90;;;;;;5076060;28;20309;-78
2021/09/03 02:38:01;;;;;;;11.80;7.80;;;14.80;99.90;;;;;;5076018;28;20209;-78
2021/09/03 02:40:29;;;;;;;12.82;8.45;;;14.90;99.90;;;;;;5076181;28;20200;-78
2021/09/03 02:42:56;;;;;;;10.63;8.02;;;14.90;99.90;;;;;;5076102;28;20213;-78
2021/09/03 02:45:23;;;;;;;11.07;6.88;;;14.80;99.90;;;;;;5075689;28;20201;-78
2021/09/03 02:47:51;;;;;;;11.55;7.45;;;14.80;99.90;;;;;;5076126;28;20204;-77
2021/09/03 02:50:18;;;;;;;9.80;6.60;;;14.70;99.90;;;;;;5076161;28;20210;-78
2021/09/03 02:52:45;;;;;;;13.35;7.72;;;14.70;99.90;;;;;;5075802;28;20205;-78
2021/09/03 02:55:12;;;;;;;10.63;6.25;;;14.60;99.90;;;;;;5075038;28;20689;-78
2021/09/03 02:57:39;;;;;;;9.25;6.07;;;14.60;99.90;;;;;;5075479;28;20210;-78
2021/09/03 03:00:09;;;;;;;10.57;7.47;;;14.60;99.90;;;;;;5076030;28;20209;-79
2021/09/03 03:02:36;;;;;;;9.40;7.15;;;14.60;99.90;;;;;;5077009;28;20286;-79
2021/09/03 03:05:05;;;;;;;9.77;6.80;;;14.60;99.90;;;;;;5076325;28;20216;-79
2021/09/03 03:07:32;;;;;;;10.30;7.05;;;14.60;99.90;;;;;;5076276;28;20222;-78
2021/09/03 03:09:59;;;;;;;10.15;6.80;;;14.60;99.90;;;;;;5077282;28;20295;-79
2021/09/03 03:12:25;;;;;;;11.00;6.75;;;14.60;99.90;;;;;;5076167;28;20214;-78
2021/09/03 03:14:52;;;;;;;9.57;7.07;;;14.60;99.90;;;;;;5076749;28;20251;-78
2021/09/03 03:17:19;;;;;;;10.20;7.10;;;14.70;99.90;;;;;;5076945;28;20272;-79
2021/09/03 03:19:46;;;;;;;9.73;7.07;;;14.70;99.90;;;;;;5076364;28;20204;-78
2021/09/03 03:22:14;;;;;;;9.30;7.35;;;14.60;99.90;;;;;;5075957;28;20638;-78
2021/09/03 03:24:41;;;;;;;10.20;7.40;;;14.60;99.90;;;;;;5076032;28;20283;-79
2021/09/03 03:27:09;;;;;;;8.65;6.43;;;14.60;99.90;;;;;;5075951;28;20292;-78
2021/09/03 03:29:36;;;;;;;10.52;7.78;;;14.50;99.90;;;;;;5076258;28;20231;-79
2021/09/03 03:32:04;;;;;;;10.70;7.43;;;14.40;99.90;;;;;;5076237;28;20289;-79
2021/09/03 03:34:31;;;;;;;9.65;7.15;;;14.30;99.90;;;;;;5076250;28;20681;-78
2021/09/03 03:36:58;;;;;;;11.63;7.30;;;14.30;99.90;;;;;;5075698;28;20293;-79
2021/09/03 03:39:26;;;;;;;9.23;6.82;;;14.30;99.90;;;;;;5075412;28;20209;-78
2021/09/03 03:41:53;;;;;;;9.75;6.78;;;14.40;99.90;;;;;;5075346;28;20301;-79
2021/09/03 03:44:20;;;;;;;12.02;7.97;;;14.40;99.90;;;;;;5075256;28;20253;-78
2021/09/03 03:46:47;;;;;;;9.27;7.22;;;14.40;99.90;;;;;;5075226;28;20784;-79
2021/09/03 03:49:14;;;;;;;9.05;6.80;;;14.40;99.90;;;;;;5075668;28;20297;-78
2021/09/03 03:51:41;;;;;;;10.73;6.57;;;14.40;99.90;;;;;;5075433;28;20203;-78
2021/09/03 03:54:08;;;;;;;11.40;6.63;;;14.40;99.90;;;;;;5075115;28;20231;-78
2021/09/03 03:56:36;;;;;;;7.15;6.20;;;14.40;99.90;;;;;;5075509;28;20270;-79
2021/09/03 03:59:03;;;;;;;7.13;6.20;;;14.30;99.90;;;;;;5079619;28;20294;-78
2021/09/03 04:01:30;;;;;;;7.55;6.07;;;14.30;99.90;;;;;;5078619;28;20209;-78
2021/09/03 04:03:57;;;;;;;8.70;5.60;;;14.30;99.90;;;;;;5078740;28;20220;-79
2021/09/03 04:06:24;;;;;;;9.18;6.03;;;14.20;99.90;;;;;;5079002;28;20293;-78
2021/09/03 04:08:50;;;;;;;10.25;6.32;;;14.30;99.90;;;;;;5078871;28;20209;-78
2021/09/03 04:11:17;;;;;;;9.05;6.85;;;14.30;99.90;;;;;;5078240;28;20202;-78
2021/09/03 04:13:45;;;;;;;10.75;7.00;;;14.10;99.90;;;;;;5078107;28;20227;-79
2021/09/03 04:16:12;;;;;;;11.55;7.57;;;13.90;99.90;;;;;;5080022;28;20225;-78
2021/09/03 04:18:40;;;;;;;8.77;6.80;;;13.70;99.90;;;;;;5081067;28;20580;-78
2021/09/03 04:21:07;;;;;;;10.43;6.95;;;13.50;99.90;;;;;;5080044;28;20653;-79
2021/09/03 04:23:34;;;;;;;11.90;7.18;;;13.40;99.90;;;;;;5079338;28;20309;-79
2021/09/03 04:26:01;;;;;;;9.50;7.63;;;13.30;99.90;;;;;;5079603;28;20289;-78
2021/09/03 04:28:27;;;;;;;8.32;6.95;;;13.10;99.90;;;;;;5078980;28;20302;-78
2021/09/03 04:30:56;;;;;;;14.55;7.60;;;13.10;99.90;;;;;;5078455;28;20220;-78
2021/09/03 04:33:22;;;;;;;11.82;7.55;;;13.30;99.90;;;;;;5077888;28;20314;-78
2021/09/03 04:35:49;;;;;;;10.25;7.60;;;13.40;99.90;;;;;;5078233;28;20305;-78
2021/09/03 04:38:16;;;;;;;10.52;7.45;;;13.50;99.90;;;;;;5078237;28;20213;-78
2021/09/03 04:40:44;;;;;;;9.88;7.70;;;13.50;99.90;;;;;;5077058;28;20278;-78
2021/09/03 04:43:11;;;;;;;11.68;7.93;;;13.60;99.90;;;;;;5077766;28;20198;-78
2021/09/03 04:45:37;;;;;;;10.88;7.90;;;13.50;99.90;;;;;;5077038;28;20203;-78
2021/09/03 04:48:06;;;;;;;9.25;7.32;;;13.50;99.90;;;;;;5077879;28;20658;-78
2021/09/03 04:50:33;;;;;;;9.32;7.50;;;13.50;99.90;;;;;;5078135;28;20560;-78
2021/09/03 04:53:01;;;;;;;10.75;8.07;;;13.60;99.90;;;;;;5077599;28;20202;-78
2021/09/03 04:55:28;;;;;;;8.98;6.18;;;13.60;99.90;;;;;;5077187;28;20302;-78
2021/09/03 04:57:55;;;;;;;11.10;7.88;;;13.70;99.90;;;;;;5077324;28;20234;-78
2021/09/03 05:00:22;;;;;;;9.32;7.07;;;13.70;99.90;;;;;;5077697;28;20202;-78
2021/09/03 05:02:49;;;;;;;9.90;7.68;;;13.60;99.90;;;;;;5077722;28;20207;-78
2021/09/03 05:05:18;;;;;;;9.70;7.65;;;13.50;99.90;;;;;;5077779;28;20234;-78
2021/09/03 05:07:45;;;;;;;12.27;8.65;;;13.60;99.90;;;;;;5076936;28;20623;-78
2021/09/03 05:10:12;;;;;;;11.13;7.82;;;13.60;99.90;;;;;;5077213;28;20229;-78
2021/09/03 05:12:40;;;;;;;13.82;8.20;;;13.60;99.90;;;;;;5078328;28;20293;-78
2021/09/03 05:15:10;;;;;;;12.80;8.98;;;13.50;99.90;;;;;;5078539;28;20230;-79
2021/09/03 05:17:37;;;;;;;13.73;7.93;;;13.50;99.90;;;;;;5079311;28;20207;-78
2021/09/03 05:20:05;;;;;;;9.15;6.85;;;13.50;99.90;;;;;;5079412;28;20208;-78
2021/09/03 05:22:34;;;;;;;10.88;7.35;;;13.40;99.90;;;;;;5077779;28;20657;-78
2021/09/03 05:25:00;;;;;;;11.75;7.75;;;13.30;99.90;;;;;;5078095;28;20692;-79
2021/09/03 05:27:27;;;;;;;11.98;7.60;;;13.40;99.90;;;;;;5078028;28;20569;-78
2021/09/03 05:29:54;;;;;;;9.82;7.25;;;13.40;99.90;;;;;;5077490;28;20203;-78
2021/09/03 05:32:21;;;;;;;10.95;8.40;;;13.60;99.90;;;;;;5078127;28;20297;-79
2021/09/03 05:34:48;;;;;;;10.23;7.47;;;13.60;99.90;;;;;;5077637;28;20266;-79
2021/09/03 05:37:15;;;;;;;9.80;7.20;;;13.80;99.90;;;;;;5078546;28;20210;-79
2021/09/03 05:39:44;;;;;;;9.85;7.25;;;13.80;99.90;;;;;;5078382;28;20610;-79
2021/09/03 05:42:14;;;;;;;10.40;7.55;;;13.60;99.90;;;;;;5078264;28;20217;-79
2021/09/03 05:44:41;;;;;;;12.07;7.95;;;13.50;99.90;;;;;;5078358;28;20219;-79
2021/09/03 05:47:07;;;;;;;9.13;7.82;;;13.40;99.90;;;;;;5077929;28;20198;-79
2021/09/03 05:49:34;;;;;;;11.40;8.93;;;13.30;99.90;;;;;;5078650;28;20221;-79
2021/09/03 05:52:01;;;;;;;12.77;8.27;;;13.20;99.90;;;;;;5078360;28;20234;-79
2021/09/03 05:54:28;;;;;;;11.45;8.75;;;13.20;99.90;;;;;;5079647;28;20318;-78
2021/09/03 05:56:56;;;;;;;9.80;7.80;;;13.40;99.90;;;;;;5078340;28;20225;-78
2021/09/03 05:59:23;;;;;;;11.80;7.88;;;13.30;99.90;;;;;;5078883;28;20246;-79
2021/09/03 06:01:50;;;;;;;10.38;7.38;;;13.30;99.90;;;;;;5078703;28;20293;-78
2021/09/03 06:04:17;;;;;;;12.13;8.65;;;13.30;99.90;;;;;;5077480;28;20290;-79
2021/09/03 06:06:43;;;;;;;12.73;8.30;;;13.30;99.90;;;;;;5078351;28;20201;-78
2021/09/03 06:09:10;;;;;;;11.75;8.30;;;13.30;99.90;;;;;;5077314;28;20230;-78
2021/09/03 06:11:37;;;;;;;11.90;9.20;;;13.30;99.90;;;;;;5079589;28;20238;-78
2021/09/03 06:14:05;;;;;;;12.95;8.75;;;13.30;99.90;;;;;;5078543;28;20235;-78
2021/09/03 06:16:32;;;;;;;10.35;7.65;;;13.30;99.90;;;;;;5078825;28;20231;-78
2021/09/03 06:18:59;;;;;;;13.80;8.90;;;13.30;99.90;;;;;;5078928;28;20211;-78
2021/09/03 06:21:26;;;;;;;11.82;8.35;;;13.40;99.90;;;;;;5078626;28;20203;-78
2021/09/03 06:23:53;;;;;;;12.32;8.73;;;13.50;99.90;;;;;;5079112;28;20250;-78
2021/09/03 06:26:20;;;;;;;11.82;9.10;;;13.50;99.90;;;;;;5078631;28;20231;-78
2021/09/03 06:28:47;;;;;;;11.20;9.15;;;13.60;99.90;;;;;;5079386;28;20285;-78
2021/09/03 06:31:15;;;;;;;13.10;9.68;;;13.70;99.90;;;;;;5078230;28;20242;-78
2021/09/03 06:33:42;;;;;;;11.75;8.65;;;13.90;99.90;;;;;;5078864;28;20229;-78
2021/09/03 06:36:09;;;;;;;13.57;9.05;;;14.00;99.90;;;;;;5078944;28;20219;-78
2021/09/03 06:38:35;;;;;;;12.57;8.68;;;14.10;99.90;;;;;;5078329;28;20705;-79
2021/09/03 06:41:02;;;;;;;14.43;9.63;;;14.10;99.90;;;;;;5077389;28;20242;-79
2021/09/03 06:43:29;;;;;;;10.40;7.70;;;14.10;99.90;;;;;;5077950;28;20646;-79
2021/09/03 06:45:56;;;;;;;13.75;9.23;;;14.20;99.90;;;;;;5077493;28;20285;-79
2021/09/03 06:48:24;;;;;;;11.35;8.43;;;14.00;99.90;;;;;;5076833;28;20286;-79
2021/09/03 06:50:51;;;;;;;14.10;9.60;;;14.00;99.90;;;;;;5077188;28;20295;-79
2021/09/03 06:53:18;;;;;;;14.40;10.13;;;14.00;99.90;;;;;;5077380;28;20594;-77
2021/09/03 06:55:45;;;;;;;14.00;10.60;;;14.00;99.90;;;;;;5079269;28;20306;-79
2021/09/03 06:58:12;;;;;;;13.85;9.80;;;14.00;99.90;;;;;;5079776;28;20234;-79
2021/09/03 07:00:39;;;;;;;14.30;10.35;;;14.10;99.90;;;;;;5082190;28;20210;-79
2021/09/03 07:03:06;;;;;;;15.88;11.32;;;14.10;99.90;;;;;;5081114;28;20290;-77
2021/09/03 07:05:34;;;;;;;16.52;10.90;;;14.30;99.90;;;;;;5079364;28;20619;-77
2021/09/03 07:08:01;;;;;;;14.88;10.25;;;14.30;99.90;;;;;;5077985;28;20382;-77
2021/09/03 07:10:28;;;;;;;12.85;9.50;;;14.40;99.90;;;;;;5078752;28;20622;-78
2021/09/03 07:12:54;;;;;;;13.98;10.55;;;14.50;99.90;;;;;;5079123;28;20204;-79
2021/09/03 07:15:21;;;;;;;16.30;10.27;;;14.60;99.90;;;;;;5078244;28;20231;-78
2021/09/03 07:17:48;;;;;;;15.70;10.85;;;14.70;99.90;;;;;;5079350;28;20204;-78
2021/09/03 07:20:15;;;;;;;15.10;9.80;;;14.60;99.90;;;;;;5078810;28;20290;-78
2021/09/03 07:22:50;;;;;;;12.27;9.20;;;14.70;99.90;;;;;;5077404;28;20200;-78
2021/09/03 07:25:17;;;;;;;11.00;7.47;;;14.80;99.90;;;;;;5077041;28;20219;-78
2021/09/03 07:27:44;;;;;;;8.82;6.40;;;14.80;99.90;;;;;;5078095;28;20317;-78
2021/09/03 07:30:11;;;;;;;10.07;6.88;;;15.00;99.90;;;;;;5077167;28;20240;-78
2021/09/03 07:32:38;;;;;;;7.20;6.10;;;15.00;99.90;;;;;;5079426;28;20223;-77
2021/09/03 07:35:06;;;;;;;8.80;6.43;;;15.10;99.90;;;;;;5081260;28;20225;-79
2021/09/03 07:37:32;;;;;;;10.23;6.40;;;15.20;99.90;;;;;;5082978;28;20236;-78
2021/09/03 07:40:01;;;;;;;10.38;6.72;;;15.30;99.90;;;;;;5081708;28;20229;-79
2021/09/03 07:42:27;;;;;;;9.25;6.05;;;15.30;99.90;;;;;;5082868;28;20276;-79
2021/09/03 07:44:54;;;;;;;8.88;6.63;;;15.30;99.90;;;;;;5082984;28;20323;-78
2021/09/03 07:47:21;;;;;;;9.52;6.10;;;15.30;99.90;;;;;;5083583;28;20292;-79
2021/09/03 07:49:48;;;;;;;8.55;6.82;;;15.30;99.90;;;;;;5081600;28;20699;-79
2021/09/03 07:52:15;;;;;;;9.00;7.07;;;15.40;99.90;;;;;;5081690;28;20292;-79
2021/09/03 07:54:43;;;;;;;10.27;6.13;;;15.50;99.90;;;;;;5080421;28;20712;-79
2021/09/03 07:57:11;;;;;;;8.13;5.80;;;15.60;99.90;;;;;;5079931;28;20273;-78
2021/09/03 07:59:38;;;;;;;7.28;5.80;;;15.70;99.90;;;;;;5081009;28;20241;-79
2021/09/03 08:02:05;;;;;;;7.10;6.20;;;15.80;99.90;;;;;;5080620;28;20205;-79
2021/09/03 08:04:33;;;;;;;8.48;6.75;;;15.70;99.90;;;;;;5080833;28;20312;-79
2021/09/03 08:07:00;;;;;;;8.30;6.28;;;15.80;99.90;;;;;;5080044;28;20198;-79
2021/09/03 08:09:27;;;;;;;9.55;6.97;;;15.90;99.90;;;;;;5079175;28;20202;-79
2021/09/03 08:11:54;;;;;;;7.30;6.03;;;16.00;99.90;;;;;;5078666;28;20213;-78
2021/09/03 08:14:22;;;;;;;7.47;5.75;;;16.00;99.90;;;;;;5078535;28;20571;-78
2021/09/03 08:16:49;;;;;;;8.23;5.90;;;16.10;99.90;;;;;;5078228;28;20317;-79
2021/09/03 08:19:16;;;;;;;6.28;5.38;;;16.10;99.90;;;;;;5078239;28;20201;-78
2021/09/03 08:21:42;;;;;;;9.77;6.82;;;16.20;99.90;;;;;;5078424;28;20747;-78
2021/09/03 08:24:11;;;;;;;8.43;6.68;;;16.30;99.90;;;;;;5078279;28;20229;-78
2021/09/03 08:26:38;;;;;;;7.22;5.75;;;16.40;99.90;;;;;;5077910;28;20204;-78
2021/09/03 08:29:06;;;;;;;8.07;6.47;;;16.50;99.90;;;;;;5078473;28;20213;-78
2021/09/03 08:31:34;;;;;;;8.18;5.85;;;16.50;99.90;;;;;;5078834;28;20560;-78
2021/09/03 08:34:01;;;;;;;7.07;5.13;;;16.60;99.90;;;;;;5078084;28;20313;-78
2021/09/03 08:36:28;;;;;;;7.55;5.95;;;16.60;99.90;;;;;;5077777;28;20324;-78
2021/09/03 08:38:54;;;;;;;10.32;7.10;;;16.70;99.90;;;;;;5077690;28;20676;-78
2021/09/03 08:41:22;;;;;;;7.72;5.78;;;16.80;99.90;;;;;;5077795;28;20210;-78
2021/09/03 08:43:49;;;;;;;5.97;5.32;;;16.80;99.90;;;;;;5077749;28;20313;-78
2021/09/03 08:46:17;;;;;;;8.45;5.88;;;17.00;99.90;;;;;;5078242;28;20267;-78
2021/09/03 08:48:46;;;;;;;9.00;5.75;;;17.00;99.90;;;;;;5079078;28;20302;-78
2021/09/03 08:51:13;;;;;;;6.93;5.60;;;17.10;99.90;;;;;;5078929;28;20549;-78
2021/09/03 08:53:39;;;;;;;8.00;6.10;;;17.10;99.90;;;;;;5078832;28;20751;-79
2021/09/03 08:56:06;;;;;;;7.72;6.20;;;17.20;99.90;;;;;;5078892;28;20219;-79
2021/09/03 08:58:34;;;;;;;6.07;5.30;;;17.30;99.90;;;;;;5079378;28;20294;-78
2021/09/03 09:01:06;;;;;;;8.35;5.80;;;17.50;99.90;;;;;;5079048;28;20198;-78
2021/09/03 09:03:37;;;;;;;6.18;4.75;;;17.60;99.90;;;;;;5078935;28;20218;-77
2021/09/03 09:06:06;;;;;;;7.82;5.97;;;17.60;99.90;;;;;;5078601;28;20553;-78
2021/09/03 09:08:34;;;;;;;6.70;5.65;;;17.70;99.90;;;;;;5078516;28;20641;-78
2021/09/03 09:11:03;;;;;;;6.70;5.82;;;17.70;99.90;;;;;;5078142;28;20210;-78
2021/09/03 09:13:32;;;;;;;8.60;6.20;;;17.80;99.90;;;;;;5077920;28;20249;-77
2021/09/03 09:16:10;;;;;;;5.78;5.25;;;17.90;99.90;;;;;;5077295;28;20229;-78
2021/09/03 09:18:46;;;;;;;6.35;4.68;;;18.00;99.90;;;;;;5077783;28;20205;-78
2021/09/03 09:21:21;;;;;;;6.55;5.50;;;18.10;99.90;;;;;;5077361;28;20306;-76
2021/09/03 09:23:51;;;;;;;6.13;5.53;;;18.20;99.90;;;;;;5088935;28;20230;-79
2021/09/03 09:26:19;;;;;;;5.95;4.95;;;18.30;99.90;;;;;;5077433;28;20628;-78
2021/09/03 09:28:47;;;;;;;6.35;5.25;;;18.40;99.90;;;;;;5075890;28;20205;-76
2021/09/03 09:31:32;;;;;;;6.07;5.32;;;18.50;99.90;;;;;;5078107;28;20204;-78
2021/09/03 09:33:59;;;;;;;6.88;6.15;;;18.60;99.90;;;;;;5085240;28;20390;-79
2021/09/03 09:36:34;;;;;;;6.55;5.05;;;18.60;99.90;;;;;;5084243;28;20410;-79
2021/09/03 09:39:01;;;;;;;7.47;6.20;;;18.70;99.90;;;;;;5084495;28;20258;-79
2021/09/03 09:41:28;;;;;;;6.10;5.20;;;18.80;99.90;;;;;;5085798;28;20496;-78
2021/09/03 09:43:55;;;;;;;6.13;5.53;;;19.10;99.90;;;;;;5083594;28;20535;-79
2021/09/03 09:46:23;;;;;;;9.37;6.33;;;19.70;99.90;;;;;;5083359;28;20483;-77
2021/09/03 09:49:10;;;;;;;6.23;5.63;;;21.10;99.90;;;;;;5074909;28;20544;-78
2021/09/03 09:51:42;;;;;;;5.77;4.93;;;23.10;99.90;;;;;;5075490;28;20478;-78
2021/09/03 09:54:10;;;;;;;6.00;5.20;;;25.10;98.00;;;;;;5074733;28;20469;-78
2021/09/03 09:56:40;;;;;;;6.57;4.80;;;26.60;91.10;;;;;;5076019;28;20576;-77
2021/09/03 09:59:09;;;;;;;5.27;4.77;;;27.90;87.40;;;;;;5076807;28;20448;-78
2021/09/03 10:01:38;;;;;;;5.30;4.80;;;28.70;78.90;;;;;;5077452;28;20445;-79
2021/09/03 10:04:07;;;;;;;7.00;5.53;;;29.70;77.30;;;;;;5075537;28;20489;-79
2021/09/03 10:06:36;;;;;;;5.40;4.90;;;29.90;72.10;;;;;;5076013;28;20872;-78
2021/09/03 10:09:07;;;;;;;5.63;5.13;;;30.80;69.50;;;;;;5080686;28;20452;-78
2021/09/03 10:11:35;;;;;;;5.77;5.27;;;30.90;68.20;;;;;;5079426;28;20504;-78
2021/09/03 10:14:03;;;;;;;6.00;4.90;;;30.70;66.00;;;;;;5078259;28;20470;-78
2021/09/03 10:16:30;;;;;;;6.10;5.50;;;31.30;65.80;;;;;;5078496;28;20475;-77
2021/09/03 10:19:00;;;;;;;5.20;4.70;;;32.00;60.60;;;;;;5076824;28;20445;-77
2021/09/03 10:21:29;;;;;;;5.80;5.30;;;32.60;58.30;;;;;;5074454;28;20506;-75
2021/09/03 10:23:58;;;;;;;5.50;5.00;;;33.20;55.10;;;;;;5074036;28;20492;-75
2021/09/03 10:26:29;;;;;;;5.50;5.00;;;33.70;55.30;;;;;;5073561;28;20523;-75
2021/09/03 10:29:17;;;;;;;5.13;4.73;;;33.30;54.80;;;;;;5075073;28;20431;-77
2021/09/03 10:32:11;;;;;;;5.20;4.80;;;34.00;54.80;;;;;;5076530;28;20451;-78
2021/09/03 10:35:04;;;;;;;4.93;4.53;;;34.30;54.60;;;;;;5074912;28;20958;-77
2021/09/03 10:37:38;;;;;;;5.90;5.30;;;34.20;52.40;;;;;;5074373;28;20484;-77
2021/09/03 10:40:20;;;;;;;5.53;5.03;;;34.00;53.00;;;;;;5073390;28;20460;-76
2021/09/03 10:42:56;;;;;;;5.63;5.13;;;33.40;54.60;;;;;;5074315;28;20862;-77
2021/09/03 10:45:26;;;;;;;5.90;5.40;;;34.10;52.50;;;;;;5074381;28;20445;-77
2021/09/03 10:48:07;;;;;;;6.40;5.80;;;34.10;51.00;;;;;;5073899;28;20441;-77
2021/09/03 10:50:35;;;;;;;5.17;4.77;;;33.10;52.50;;;;;;5073184;28;20891;-75
2021/09/03 10:53:34;;;;;;;6.20;5.60;;;32.30;53.90;;;;;;5073078;28;20447;-74
2021/09/03 10:56:21;;;;;;;6.10;5.50;;;30.70;56.90;;;;;;5072630;28;20923;-74
2021/09/03 10:59:06;;;;;;;5.70;5.07;;;29.90;57.90;;;;;;5072606;28;20496;-73
2021/09/03 11:01:49;;;;;;;6.33;5.73;;;29.70;58.80;;;;;;5072752;28;20441;-73
2021/09/03 11:04:17;;;;;;;6.10;5.50;;;29.30;60.70;;;;;;5072697;28;20465;-74
2021/09/03 11:06:57;;;;;;;5.60;5.10;;;29.00;61.70;;;;;;5072580;28;21007;-75
2021/09/03 11:09:27;;;;;;;5.87;5.37;;;29.50;60.40;;;;;;5072626;28;20451;-75
2021/09/03 11:11:56;;;;;;;6.50;5.20;;;29.90;63.10;;;;;;5072857;28;20445;-75
2021/09/03 11:14:26;;;;;;;7.30;5.80;;;29.90;59.60;;;;;;5072373;28;20543;-75
2021/09/03 11:16:56;;;;;;;7.20;5.20;;;30.20;61.40;;;;;;5071883;28;20500;-75
2021/09/03 11:19:25;;;;;;;6.40;5.40;;;31.30;58.50;;;;;;5072454;28;20459;-74
2021/09/03 11:21:55;;;;;;;6.20;5.60;;;32.20;57.20;;;;;;5072659;28;20448;-77
2021/09/03 11:24:24;;;;;;;6.93;5.97;;;32.80;56.10;;;;;;5075041;28;20496;-79
2021/09/03 11:26:53;;;;;;;6.20;5.60;;;33.10;53.70;;;;;;5074461;28;20823;-76
2021/09/03 11:29:22;;;;;;;5.43;4.93;;;33.10;52.00;;;;;;5074500;28;20472;-76
2021/09/03 11:31:59;;;;;;;6.23;5.73;;;32.90;53.10;;;;;;5073067;28;20448;-78
2021/09/03 11:34:58;;;;;;;6.17;5.63;;;32.20;52.80;;;;;;5073956;28;20531;-78
2021/09/03 11:37:30;;;;;;;7.83;5.87;;;31.00;56.00;;;;;;5074067;28;20483;-78
2021/09/03 11:40:06;;;;;;;5.93;5.40;;;29.80;57.50;;;;;;5073524;28;20445;-77
2021/09/03 11:42:35;;;;;;;6.30;5.70;;;29.20;60.30;;;;;;5073991;28;20495;-77
2021/09/03 11:45:04;;;;;;;6.00;5.40;;;28.50;60.90;;;;;;5071812;28;20465;-78
2021/09/03 11:47:38;;;;;;;5.97;5.40;;;27.50;62.90;;;;;;5072305;28;20441;-77
2021/09/03 11:50:12;;;;;;;7.23;5.40;;;26.60;68.10;;;;;;5072900;28;20445;-77
2021/09/03 11:52:40;;;;;;;6.07;5.03;;;26.00;71.10;;;;;;5072653;28;20536;-77
2021/09/03 11:55:11;;;;;;;5.07;4.57;;;25.70;73.40;;;;;;5072057;28;20575;-78
2021/09/03 11:57:58;;;;;;;5.93;5.03;;;25.60;73.60;;;;;;5076530;28;20484;-80
2021/09/03 12:00:27;;;;;;;5.40;4.90;;;25.30;74.80;;;;;;5077689;28;20525;-80
2021/09/03 12:02:56;;;;;;;5.93;5.33;;;25.10;76.30;;;;;;5078122;28;20454;-79
2021/09/03 12:05:24;;;;;;;5.67;5.13;;;24.90;76.40;;;;;;5077539;28;20439;-79
2021/09/03 12:08:06;;;;;;;5.70;5.10;;;25.00;77.10;;;;;;5076600;28;20595;-79
2021/09/03 12:10:44;;;;;;;5.73;5.23;;;25.30;77.40;;;;;;5077944;28;20492;-78
2021/09/03 12:13:14;;;;;;;5.60;5.00;;;25.50;77.50;;;;;;5078086;28;20934;-79
2021/09/03 12:15:42;;;;;;;6.03;5.43;;;25.60;76.70;;;;;;5077133;28;20532;-79
2021/09/03 12:18:22;;;;;;;5.30;4.63;;;25.70;79.00;;;;;;5079836;28;20883;-80
2021/09/03 12:20:52;;;;;;;5.70;5.20;;;25.50;79.30;;;;;;5082626;28;20535;-78
2021/09/03 12:23:19;;;;;;;5.37;4.87;;;25.50;78.30;;;;;;5081236;28;20469;-80
2021/09/03 12:25:46;;;;;;;5.50;5.00;;;25.30;77.50;;;;;;5081361;28;20536;-79
2021/09/03 12:28:14;;;;;;;5.63;5.10;;;25.20;81.00;;;;;;5078744;28;20453;-76
2021/09/03 12:30:42;;;;;;;5.00;4.50;;;25.20;83.60;;;;;;5078479;28;20527;-78
2021/09/03 12:33:27;;;;;;;5.10;4.60;;;25.20;79.50;;;;;;5084627;28;20516;-79
2021/09/03 12:35:57;;;;;;;5.50;5.00;;;25.30;77.20;;;;;;5083062;28;20433;-78
2021/09/03 12:38:34;;;;;;;6.00;5.23;;;25.10;76.80;;;;;;5083385;28;20504;-78
2021/09/03 12:41:17;;;;;;;5.20;4.70;;;24.90;81.00;;;;;;5081800;28;20494;-78
2021/09/03 12:43:48;;;;;;;6.83;5.40;;;24.90;85.00;;;;;;5083139;28;20484;-78
2021/09/03 12:46:17;;;;;;;5.70;5.10;;;25.00;83.10;;;;;;5082952;28;20993;-79
2021/09/03 12:48:48;;;;;;;5.70;4.70;;;24.90;80.10;;;;;;5081798;28;20479;-78
2021/09/03 12:51:20;;;;;;;5.47;4.97;;;25.00;77.20;;;;;;5081471;28;20493;-79